sensor_id;sensor_type;location;lat;lon;timestamp;temperature;humidity
9723;DHT22;4900;49.306;8.500;2022-08-25T00:01:26;24.65;48.39
9723;DHT22;4900;49.306;8.500;2022-08-25T00:04:29;24.67;48.53
9723;DHT22;4900;49.306;8.500;2022-08-25T00:07:33;24.61;48.82
9723;DHT22;4900;49.306;8.500;2022-08-25T00:10:38;24.60;49.12
9723;DHT22;4900;49.306;8.500;2022-08-25T00:13:44;24.57;49.22
9723;DHT22;4900;49.306;8.500;2022-08-25T00:16:48;24.54;49.41
9723;DHT22;4900;49.306;8.500;2022-08-25T00:19:52;24.47;49.72
9723;DHT22;4900;49.306;8.500;2022-08-25T00:22:56;24.47;50.03
9723;DHT22;4900;49.306;8.500;2022-08-25T00:26:00;24.41;50.37
9723;DHT22;4900;49.306;8.500;2022-08-25T00:29:03;24.36;50.70
9723;DHT22;4900;49.306;8.500;2022-08-25T00:32:08;24.27;51.03
9723;DHT22;4900;49.306;8.500;2022-08-25T00:35:11;24.20;51.24
9723;DHT22;4900;49.306;8.500;2022-08-25T00:38:14;24.16;51.52
9723;DHT22;4900;49.306;8.500;2022-08-25T00:41:20;24.10;51.98
9723;DHT22;4900;49.306;8.500;2022-08-25T00:44:27;24.05;52.13
9723;DHT22;4900;49.306;8.500;2022-08-25T00:47:31;23.98;52.39
9723;DHT22;4900;49.306;8.500;2022-08-25T00:50:35;23.98;52.29
9723;DHT22;4900;49.306;8.500;2022-08-25T00:53:39;23.92;52.43
9723;DHT22;4900;49.306;8.500;2022-08-25T00:56:43;23.90;52.50
9723;DHT22;4900;49.306;8.500;2022-08-25T00:59:47;23.90;52.26
9723;DHT22;4900;49.306;8.500;2022-08-25T01:02:51;23.88;52.66
9723;DHT22;4900;49.306;8.500;2022-08-25T01:05:55;23.85;52.33
9723;DHT22;4900;49.306;8.500;2022-08-25T01:08:59;23.82;52.45
9723;DHT22;4900;49.306;8.500;2022-08-25T01:12:02;23.81;52.77
9723;DHT22;4900;49.306;8.500;2022-08-25T01:15:10;23.78;52.85
9723;DHT22;4900;49.306;8.500;2022-08-25T01:18:14;23.74;52.99
9723;DHT22;4900;49.306;8.500;2022-08-25T01:21:20;23.71;53.55
9723;DHT22;4900;49.306;8.500;2022-08-25T01:27:33;23.57;53.99
9723;DHT22;4900;49.306;8.500;2022-08-25T01:30:37;23.48;53.97
9723;DHT22;4900;49.306;8.500;2022-08-25T01:33:40;23.40;54.06
9723;DHT22;4900;49.306;8.500;2022-08-25T01:36:44;23.33;54.55
9723;DHT22;4900;49.306;8.500;2022-08-25T01:39:47;23.28;54.72
9723;DHT22;4900;49.306;8.500;2022-08-25T01:46:20;23.20;55.04
9723;DHT22;4900;49.306;8.500;2022-08-25T01:49:24;23.16;55.27
9723;DHT22;4900;49.306;8.500;2022-08-25T01:52:32;23.09;55.57
9723;DHT22;4900;49.306;8.500;2022-08-25T01:55:36;23.10;55.82
9723;DHT22;4900;49.306;8.500;2022-08-25T01:58:56;23.02;55.89
9723;DHT22;4900;49.306;8.500;2022-08-25T02:01:59;23.03;56.11
9723;DHT22;4900;49.306;8.500;2022-08-25T02:05:03;22.99;56.35
9723;DHT22;4900;49.306;8.500;2022-08-25T02:08:06;23.02;56.25
9723;DHT22;4900;49.306;8.500;2022-08-25T02:11:13;23.02;56.12
9723;DHT22;4900;49.306;8.500;2022-08-25T02:14:17;23.03;56.36
9723;DHT22;4900;49.306;8.500;2022-08-25T02:17:21;23.02;56.45
9723;DHT22;4900;49.306;8.500;2022-08-25T02:20:24;23.02;56.39
9723;DHT22;4900;49.306;8.500;2022-08-25T02:23:28;23.00;56.44
9723;DHT22;4900;49.306;8.500;2022-08-25T02:26:32;23.03;56.58
9723;DHT22;4900;49.306;8.500;2022-08-25T02:29:35;23.04;56.16
9723;DHT22;4900;49.306;8.500;2022-08-25T02:32:39;23.03;56.14
9723;DHT22;4900;49.306;8.500;2022-08-25T02:35:42;23.07;56.39
9723;DHT22;4900;49.306;8.500;2022-08-25T02:38:46;23.06;56.36
9723;DHT22;4900;49.306;8.500;2022-08-25T02:41:49;23.04;56.25
9723;DHT22;4900;49.306;8.500;2022-08-25T02:44:53;22.98;56.88
9723;DHT22;4900;49.306;8.500;2022-08-25T02:47:56;22.92;57.34
9723;DHT22;4900;49.306;8.500;2022-08-25T02:51:00;22.86;57.47
9723;DHT22;4900;49.306;8.500;2022-08-25T02:54:05;22.83;57.52
9723;DHT22;4900;49.306;8.500;2022-08-25T02:57:09;22.82;57.87
9723;DHT22;4900;49.306;8.500;2022-08-25T03:00:15;22.78;58.52
9723;DHT22;4900;49.306;8.500;2022-08-25T03:03:19;22.69;58.54
9723;DHT22;4900;49.306;8.500;2022-08-25T03:06:22;22.65;58.94
9723;DHT22;4900;49.306;8.500;2022-08-25T03:09:26;22.58;59.09
9723;DHT22;4900;49.306;8.500;2022-08-25T03:12:29;22.53;59.26
9723;DHT22;4900;49.306;8.500;2022-08-25T03:15:32;22.48;59.78
9723;DHT22;4900;49.306;8.500;2022-08-25T03:18:41;22.43;59.98
9723;DHT22;4900;49.306;8.500;2022-08-25T03:21:44;22.36;60.09
9723;DHT22;4900;49.306;8.500;2022-08-25T03:24:47;22.34;59.89
9723;DHT22;4900;49.306;8.500;2022-08-25T03:27:51;22.28;60.25
9723;DHT22;4900;49.306;8.500;2022-08-25T03:30:54;22.26;60.26
9723;DHT22;4900;49.306;8.500;2022-08-25T03:33:59;22.23;60.34
9723;DHT22;4900;49.306;8.500;2022-08-25T03:37:03;22.16;60.44
9723;DHT22;4900;49.306;8.500;2022-08-25T03:40:09;22.14;60.57
9723;DHT22;4900;49.306;8.500;2022-08-25T03:43:13;22.10;60.63
9723;DHT22;4900;49.306;8.500;2022-08-25T03:46:24;22.06;60.66
9723;DHT22;4900;49.306;8.500;2022-08-25T03:49:28;22.06;60.74
9723;DHT22;4900;49.306;8.500;2022-08-25T03:52:31;22.00;60.68
9723;DHT22;4900;49.306;8.500;2022-08-25T03:55:35;21.99;60.69
9723;DHT22;4900;49.306;8.500;2022-08-25T03:58:38;21.93;60.98
9723;DHT22;4900;49.306;8.500;2022-08-25T04:01:43;21.88;61.31
9723;DHT22;4900;49.306;8.500;2022-08-25T04:04:47;21.86;61.19
9723;DHT22;4900;49.306;8.500;2022-08-25T04:07:52;21.79;61.23
9723;DHT22;4900;49.306;8.500;2022-08-25T04:10:55;21.79;61.58
9723;DHT22;4900;49.306;8.500;2022-08-25T04:13:59;21.75;61.42
9723;DHT22;4900;49.306;8.500;2022-08-25T04:17:04;21.69;61.32
9723;DHT22;4900;49.306;8.500;2022-08-25T04:20:09;21.72;61.27
9723;DHT22;4900;49.306;8.500;2022-08-25T04:23:12;21.69;61.47
9723;DHT22;4900;49.306;8.500;2022-08-25T04:26:26;21.62;61.50
9723;DHT22;4900;49.306;8.500;2022-08-25T04:29:29;21.62;61.86
9723;DHT22;4900;49.306;8.500;2022-08-25T04:32:35;21.57;62.52
9723;DHT22;4900;49.306;8.500;2022-08-25T04:35:38;21.54;62.64
9723;DHT22;4900;49.306;8.500;2022-08-25T04:38:44;21.50;62.35
9723;DHT22;4900;49.306;8.500;2022-08-25T04:41:49;21.47;62.20
9723;DHT22;4900;49.306;8.500;2022-08-25T04:44:52;21.51;62.20
9723;DHT22;4900;49.306;8.500;2022-08-25T04:47:56;21.51;62.10
9723;DHT22;4900;49.306;8.500;2022-08-25T04:51:07;21.46;62.22
9723;DHT22;4900;49.306;8.500;2022-08-25T04:54:13;21.47;62.07
9723;DHT22;4900;49.306;8.500;2022-08-25T04:57:18;21.51;61.71
9723;DHT22;4900;49.306;8.500;2022-08-25T05:00:21;21.50;61.50
9723;DHT22;4900;49.306;8.500;2022-08-25T05:03:24;21.54;61.21
9723;DHT22;4900;49.306;8.500;2022-08-25T05:06:28;21.54;61.19
9723;DHT22;4900;49.306;8.500;2022-08-25T05:09:32;21.58;61.06
9723;DHT22;4900;49.306;8.500;2022-08-25T05:12:35;21.58;60.75
9723;DHT22;4900;49.306;8.500;2022-08-25T05:15:38;21.55;60.59
9723;DHT22;4900;49.306;8.500;2022-08-25T05:18:54;21.58;60.31
9723;DHT22;4900;49.306;8.500;2022-08-25T05:21:58;21.64;60.11
9723;DHT22;4900;49.306;8.500;2022-08-25T05:25:00;21.68;59.97
9723;DHT22;4900;49.306;8.500;2022-08-25T05:28:04;21.68;59.91
9723;DHT22;4900;49.306;8.500;2022-08-25T05:31:10;21.72;59.79
9723;DHT22;4900;49.306;8.500;2022-08-25T05:34:14;21.76;59.97
9723;DHT22;4900;49.306;8.500;2022-08-25T05:37:18;21.82;60.35
9723;DHT22;4900;49.306;8.500;2022-08-25T05:40:22;21.83;60.50
9723;DHT22;4900;49.306;8.500;2022-08-25T05:43:25;21.91;60.16
9723;DHT22;4900;49.306;8.500;2022-08-25T05:46:29;21.92;60.09
9723;DHT22;4900;49.306;8.500;2022-08-25T05:49:33;21.95;60.17
9723;DHT22;4900;49.306;8.500;2022-08-25T05:52:37;21.99;59.60
9723;DHT22;4900;49.306;8.500;2022-08-25T05:55:43;22.02;59.07
9723;DHT22;4900;49.306;8.500;2022-08-25T05:58:47;22.09;58.71
9723;DHT22;4900;49.306;8.500;2022-08-25T06:01:50;22.14;58.49
9723;DHT22;4900;49.306;8.500;2022-08-25T06:05:21;22.20;58.85
9723;DHT22;4900;49.306;8.500;2022-08-25T06:08:24;22.26;58.76
9723;DHT22;4900;49.306;8.500;2022-08-25T06:11:31;22.33;58.75
9723;DHT22;4900;49.306;8.500;2022-08-25T06:14:34;22.41;58.72
9723;DHT22;4900;49.306;8.500;2022-08-25T06:17:38;22.51;58.59
9723;DHT22;4900;49.306;8.500;2022-08-25T06:20:45;22.61;58.62
9723;DHT22;4900;49.306;8.500;2022-08-25T06:23:48;22.69;59.01
9723;DHT22;4900;49.306;8.500;2022-08-25T06:26:52;22.76;58.93
9723;DHT22;4900;49.306;8.500;2022-08-25T06:29:56;22.90;58.72
9723;DHT22;4900;49.306;8.500;2022-08-25T06:32:59;23.12;58.65
9723;DHT22;4900;49.306;8.500;2022-08-25T06:36:02;23.45;58.16
9723;DHT22;4900;49.306;8.500;2022-08-25T06:39:06;24.06;57.24
9723;DHT22;4900;49.306;8.500;2022-08-25T06:42:09;24.65;56.20
9723;DHT22;4900;49.306;8.500;2022-08-25T06:45:13;25.26;55.14
9723;DHT22;4900;49.306;8.500;2022-08-25T06:48:16;25.81;53.91
9723;DHT22;4900;49.306;8.500;2022-08-25T06:51:20;26.51;52.42
9723;DHT22;4900;49.306;8.500;2022-08-25T06:54:24;26.89;51.54
9723;DHT22;4900;49.306;8.500;2022-08-25T06:57:27;27.54;50.45
9723;DHT22;4900;49.306;8.500;2022-08-25T07:00:31;27.96;49.69
9723;DHT22;4900;49.306;8.500;2022-08-25T07:03:35;28.40;49.16
9723;DHT22;4900;49.306;8.500;2022-08-25T07:06:38;28.85;48.08
9723;DHT22;4900;49.306;8.500;2022-08-25T07:09:41;29.06;48.00
9723;DHT22;4900;49.306;8.500;2022-08-25T07:12:44;29.38;47.68
9723;DHT22;4900;49.306;8.500;2022-08-25T07:15:52;29.81;47.07
9723;DHT22;4900;49.306;8.500;2022-08-25T07:18:56;30.05;46.66
9723;DHT22;4900;49.306;8.500;2022-08-25T07:22:00;30.27;46.52
9723;DHT22;4900;49.306;8.500;2022-08-25T07:25:04;30.54;45.77
9723;DHT22;4900;49.306;8.500;2022-08-25T07:28:08;30.74;45.43
9723;DHT22;4900;49.306;8.500;2022-08-25T07:31:12;30.95;45.13
9723;DHT22;4900;49.306;8.500;2022-08-25T07:34:15;30.92;44.63
9723;DHT22;4900;49.306;8.500;2022-08-25T07:37:38;31.24;44.07
9723;DHT22;4900;49.306;8.500;2022-08-25T07:40:42;31.37;43.36
9723;DHT22;4900;49.306;8.500;2022-08-25T07:43:45;31.99;42.65
9723;DHT22;4900;49.306;8.500;2022-08-25T07:46:50;31.61;42.80
9723;DHT22;4900;49.306;8.500;2022-08-25T07:49:53;31.96;42.55
9723;DHT22;4900;49.306;8.500;2022-08-25T07:52:58;31.77;42.45
9723;DHT22;4900;49.306;8.500;2022-08-25T07:56:01;32.37;41.46
9723;DHT22;4900;49.306;8.500;2022-08-25T07:59:04;32.29;41.74
9723;DHT22;4900;49.306;8.500;2022-08-25T08:02:11;32.53;41.25
9723;DHT22;4900;49.306;8.500;2022-08-25T08:05:15;33.02;40.79
9723;DHT22;4900;49.306;8.500;2022-08-25T08:08:19;33.12;40.53
9723;DHT22;4900;49.306;8.500;2022-08-25T08:14:25;33.68;39.89
9723;DHT22;4900;49.306;8.500;2022-08-25T08:17:28;33.91;39.14
9723;DHT22;4900;49.306;8.500;2022-08-25T08:20:31;33.84;38.70
9723;DHT22;4900;49.306;8.500;2022-08-25T08:23:36;34.22;38.45
9723;DHT22;4900;49.306;8.500;2022-08-25T08:26:39;34.80;37.82
9723;DHT22;4900;49.306;8.500;2022-08-25T08:29:42;34.63;37.74
9723;DHT22;4900;49.306;8.500;2022-08-25T08:32:46;34.94;37.27
9723;DHT22;4900;49.306;8.500;2022-08-25T08:36:03;35.36;36.83
9723;DHT22;4900;49.306;8.500;2022-08-25T08:39:07;35.49;37.63
9723;DHT22;4900;49.306;8.500;2022-08-25T08:45:40;36.06;35.91
9723;DHT22;4900;49.306;8.500;2022-08-25T08:48:57;36.08;35.28
9723;DHT22;4900;49.306;8.500;2022-08-25T08:52:03;35.77;36.09
9723;DHT22;4900;49.306;8.500;2022-08-25T08:55:44;35.94;35.53
9723;DHT22;4900;49.306;8.500;2022-08-25T08:58:44;36.15;35.19
9723;DHT22;4900;49.306;8.500;2022-08-25T09:05:00;36.21;35.18
9723;DHT22;4900;49.306;8.500;2022-08-25T09:08:06;36.79;34.61
9723;DHT22;4900;49.306;8.500;2022-08-25T09:11:22;37.07;33.94
9723;DHT22;4900;49.306;8.500;2022-08-25T09:31:02;37.97;33.70
9723;DHT22;4900;49.306;8.500;2022-08-25T09:34:18;37.46;32.85
9723;DHT22;4900;49.306;8.500;2022-08-25T09:37:22;37.86;32.48
9723;DHT22;4900;49.306;8.500;2022-08-25T09:40:29;38.08;31.98
9723;DHT22;4900;49.306;8.500;2022-08-25T09:43:40;37.46;32.35
9723;DHT22;4900;49.306;8.500;2022-08-25T09:50:19;37.14;32.40
9723;DHT22;4900;49.306;8.500;2022-08-25T09:53:22;37.61;32.23
9723;DHT22;4900;49.306;8.500;2022-08-25T09:56:29;36.48;33.86
9723;DHT22;4900;49.306;8.500;2022-08-25T09:59:36;37.08;33.14
9723;DHT22;4900;49.306;8.500;2022-08-25T10:02:41;37.42;32.63
9723;DHT22;4900;49.306;8.500;2022-08-25T10:05:58;37.18;33.27
9723;DHT22;4900;49.306;8.500;2022-08-25T10:09:04;37.74;32.12
9723;DHT22;4900;49.306;8.500;2022-08-25T10:12:20;37.97;31.10
9723;DHT22;4900;49.306;8.500;2022-08-25T10:15:31;38.75;30.75
9723;DHT22;4900;49.306;8.500;2022-08-25T10:18:35;39.00;30.19
9723;DHT22;4900;49.306;8.500;2022-08-25T10:21:41;39.70;29.80
9723;DHT22;4900;49.306;8.500;2022-08-25T10:24:44;39.14;30.76
9723;DHT22;4900;49.306;8.500;2022-08-25T10:31:27;38.62;29.37
9723;DHT22;4900;49.306;8.500;2022-08-25T10:34:52;39.04;29.69
9723;DHT22;4900;49.306;8.500;2022-08-25T10:38:35;38.53;29.85
9723;DHT22;4900;49.306;8.500;2022-08-25T10:41:48;39.00;29.63
9723;DHT22;4900;49.306;8.500;2022-08-25T10:45:18;39.35;30.01
9723;DHT22;4900;49.306;8.500;2022-08-25T10:49:09;38.59;29.51
9723;DHT22;4900;49.306;8.500;2022-08-25T10:56:21;37.31;30.86
9723;DHT22;4900;49.306;8.500;2022-08-25T11:02:55;38.03;31.10
9723;DHT22;4900;49.306;8.500;2022-08-25T11:06:06;38.06;29.96
9723;DHT22;4900;49.306;8.500;2022-08-25T11:09:22;39.04;29.30
9723;DHT22;4900;49.306;8.500;2022-08-25T11:12:38;39.66;28.00
9723;DHT22;4900;49.306;8.500;2022-08-25T11:16:10;40.41;27.88
9723;DHT22;4900;49.306;8.500;2022-08-25T11:19:37;41.23;27.03
9723;DHT22;4900;49.306;8.500;2022-08-25T11:22:44;41.02;26.88
9723;DHT22;4900;49.306;8.500;2022-08-25T11:25:51;40.85;27.23
9723;DHT22;4900;49.306;8.500;2022-08-25T11:29:05;41.07;27.45
9723;DHT22;4900;49.306;8.500;2022-08-25T11:32:12;41.27;26.75
9723;DHT22;4900;49.306;8.500;2022-08-25T11:35:19;41.43;26.75
9723;DHT22;4900;49.306;8.500;2022-08-25T11:42:15;40.89;27.40
9723;DHT22;4900;49.306;8.500;2022-08-25T11:49:07;40.00;27.06
9723;DHT22;4900;49.306;8.500;2022-08-25T11:52:46;40.51;26.82
9723;DHT22;4900;49.306;8.500;2022-08-25T11:55:56;41.53;26.03
9723;DHT22;4900;49.306;8.500;2022-08-25T11:59:04;42.26;25.78
9723;DHT22;4900;49.306;8.500;2022-08-25T12:06:13;44.01;24.31
9723;DHT22;4900;49.306;8.500;2022-08-25T12:09:18;44.80;23.66
9723;DHT22;4900;49.306;8.500;2022-08-25T12:12:36;45.25;23.34
9723;DHT22;4900;49.306;8.500;2022-08-25T12:18:48;45.91;21.23
9723;DHT22;4900;49.306;8.500;2022-08-25T12:21:55;46.24;21.15
9723;DHT22;4900;49.306;8.500;2022-08-25T12:25:36;46.59;20.99
9723;DHT22;4900;49.306;8.500;2022-08-25T12:28:53;46.79;20.66
9723;DHT22;4900;49.306;8.500;2022-08-25T12:38:45;46.76;21.57
9723;DHT22;4900;49.306;8.500;2022-08-25T12:41:56;46.18;21.70
9723;DHT22;4900;49.306;8.500;2022-08-25T12:54:41;46.94;21.49
9723;DHT22;4900;49.306;8.500;2022-08-25T12:57:54;47.02;20.85
9723;DHT22;4900;49.306;8.500;2022-08-25T13:12:01;47.47;20.86
9723;DHT22;4900;49.306;8.500;2022-08-25T13:15:04;47.47;20.33
9723;DHT22;4900;49.306;8.500;2022-08-25T13:18:37;47.24;20.27
9723;DHT22;4900;49.306;8.500;2022-08-25T13:21:41;47.33;20.62
9723;DHT22;4900;49.306;8.500;2022-08-25T13:24:46;47.58;20.62
9723;DHT22;4900;49.306;8.500;2022-08-25T13:27:58;47.99;20.04
9723;DHT22;4900;49.306;8.500;2022-08-25T13:31:22;48.37;19.91
9723;DHT22;4900;49.306;8.500;2022-08-25T13:34:32;48.37;19.75
9723;DHT22;4900;49.306;8.500;2022-08-25T13:37:36;47.44;19.50
9723;DHT22;4900;49.306;8.500;2022-08-25T13:40:39;46.83;20.10
9723;DHT22;4900;49.306;8.500;2022-08-25T13:43:42;46.62;20.98
9723;DHT22;4900;49.306;8.500;2022-08-25T13:46:46;46.83;20.90
9723;DHT22;4900;49.306;8.500;2022-08-25T13:49:50;46.31;20.94
9723;DHT22;4900;49.306;8.500;2022-08-25T13:53:06;46.31;21.17
9723;DHT22;4900;49.306;8.500;2022-08-25T13:56:10;46.68;21.34
9723;DHT22;4900;49.306;8.500;2022-08-25T13:59:23;47.03;20.69
9723;DHT22;4900;49.306;8.500;2022-08-25T14:02:41;47.18;20.60
9723;DHT22;4900;49.306;8.500;2022-08-25T14:05:45;47.52;19.80
9723;DHT22;4900;49.306;8.500;2022-08-25T14:11:57;47.90;19.82
9723;DHT22;4900;49.306;8.500;2022-08-25T14:15:10;47.54;19.83
9723;DHT22;4900;49.306;8.500;2022-08-25T14:18:21;46.82;20.50
9723;DHT22;4900;49.306;8.500;2022-08-25T14:21:30;46.59;21.26
9723;DHT22;4900;49.306;8.500;2022-08-25T14:24:34;46.21;21.15
9723;DHT22;4900;49.306;8.500;2022-08-25T14:27:42;46.32;20.42
9723;DHT22;4900;49.306;8.500;2022-08-25T14:30:56;46.51;20.51
9723;DHT22;4900;49.306;8.500;2022-08-25T14:34:08;46.11;20.88
9723;DHT22;4900;49.306;8.500;2022-08-25T14:37:15;45.72;21.51
9723;DHT22;4900;49.306;8.500;2022-08-25T14:40:18;44.73;21.45
9723;DHT22;4900;49.306;8.500;2022-08-25T14:43:21;44.15;21.76
9723;DHT22;4900;49.306;8.500;2022-08-25T14:46:27;43.61;22.77
9723;DHT22;4900;49.306;8.500;2022-08-25T14:49:34;43.70;23.53
9723;DHT22;4900;49.306;8.500;2022-08-25T14:52:39;43.91;23.75
9723;DHT22;4900;49.306;8.500;2022-08-25T14:55:43;44.26;23.11
9723;DHT22;4900;49.306;8.500;2022-08-25T14:58:46;44.90;22.68
9723;DHT22;4900;49.306;8.500;2022-08-25T15:01:49;45.31;22.56
9723;DHT22;4900;49.306;8.500;2022-08-25T15:04:56;45.89;22.32
9723;DHT22;4900;49.306;8.500;2022-08-25T15:08:00;46.25;21.98
9723;DHT22;4900;49.306;8.500;2022-08-25T15:11:21;46.60;20.68
9723;DHT22;4900;49.306;8.500;2022-08-25T15:14:24;46.83;20.63
9723;DHT22;4900;49.306;8.500;2022-08-25T15:17:28;47.20;20.60
9723;DHT22;4900;49.306;8.500;2022-08-25T15:20:32;47.54;20.00
9723;DHT22;4900;49.306;8.500;2022-08-25T15:23:35;47.69;20.04
9723;DHT22;4900;49.306;8.500;2022-08-25T15:26:49;47.89;20.01
9723;DHT22;4900;49.306;8.500;2022-08-25T15:29:52;47.95;19.94
9723;DHT22;4900;49.306;8.500;2022-08-25T15:32:55;48.02;19.58
9723;DHT22;4900;49.306;8.500;2022-08-25T15:35:58;48.13;19.67
9723;DHT22;4900;49.306;8.500;2022-08-25T15:39:02;47.82;19.36
9723;DHT22;4900;49.306;8.500;2022-08-25T15:42:07;47.85;19.33
9723;DHT22;4900;49.306;8.500;2022-08-25T15:45:11;47.73;19.14
9723;DHT22;4900;49.306;8.500;2022-08-25T15:48:15;47.75;18.78
9723;DHT22;4900;49.306;8.500;2022-08-25T15:51:18;47.64;18.87
9723;DHT22;4900;49.306;8.500;2022-08-25T15:54:22;47.48;19.11
9723;DHT22;4900;49.306;8.500;2022-08-25T15:57:26;47.37;19.55
9723;DHT22;4900;49.306;8.500;2022-08-25T16:00:29;47.22;19.18
9723;DHT22;4900;49.306;8.500;2022-08-25T16:03:32;47.04;19.02
9723;DHT22;4900;49.306;8.500;2022-08-25T16:06:36;46.86;19.09
9723;DHT22;4900;49.306;8.500;2022-08-25T16:09:40;46.52;19.25
9723;DHT22;4900;49.306;8.500;2022-08-25T16:12:44;46.17;19.49
9723;DHT22;4900;49.306;8.500;2022-08-25T16:15:48;45.69;20.04
9723;DHT22;4900;49.306;8.500;2022-08-25T16:18:51;45.07;20.60
9723;DHT22;4900;49.306;8.500;2022-08-25T16:21:56;44.56;21.11
9723;DHT22;4900;49.306;8.500;2022-08-25T16:24:59;43.84;21.35
9723;DHT22;4900;49.306;8.500;2022-08-25T16:28:04;43.01;22.23
9723;DHT22;4900;49.306;8.500;2022-08-25T16:31:12;42.29;23.01
9723;DHT22;4900;49.306;8.500;2022-08-25T16:34:15;41.53;23.59
9723;DHT22;4900;49.306;8.500;2022-08-25T16:37:18;40.93;24.42
9723;DHT22;4900;49.306;8.500;2022-08-25T16:40:21;40.20;25.28
9723;DHT22;4900;49.306;8.500;2022-08-25T16:43:26;39.73;25.37
9723;DHT22;4900;49.306;8.500;2022-08-25T16:46:29;39.27;25.82
9723;DHT22;4900;49.306;8.500;2022-08-25T16:49:32;38.79;26.50
9723;DHT22;4900;49.306;8.500;2022-08-25T16:52:35;38.35;26.85
9723;DHT22;4900;49.306;8.500;2022-08-25T16:56:02;38.01;27.22
9723;DHT22;4900;49.306;8.500;2022-08-25T16:59:05;37.65;27.72
9723;DHT22;4900;49.306;8.500;2022-08-25T17:02:09;37.39;28.09
9723;DHT22;4900;49.306;8.500;2022-08-25T17:05:13;37.06;28.62
9723;DHT22;4900;49.306;8.500;2022-08-25T17:08:16;36.80;29.10
9723;DHT22;4900;49.306;8.500;2022-08-25T17:11:33;36.52;29.36
9723;DHT22;4900;49.306;8.500;2022-08-25T17:14:41;36.25;29.63
9723;DHT22;4900;49.306;8.500;2022-08-25T17:17:44;36.01;30.23
9723;DHT22;4900;49.306;8.500;2022-08-25T17:20:47;35.83;30.30
9723;DHT22;4900;49.306;8.500;2022-08-25T17:23:50;35.50;30.97
9723;DHT22;4900;49.306;8.500;2022-08-25T17:26:54;35.29;30.99
9723;DHT22;4900;49.306;8.500;2022-08-25T17:29:57;35.14;31.43
9723;DHT22;4900;49.306;8.500;2022-08-25T17:33:00;34.92;31.59
9723;DHT22;4900;49.306;8.500;2022-08-25T17:36:04;34.71;32.07
9723;DHT22;4900;49.306;8.500;2022-08-25T17:39:09;34.54;33.36
9723;DHT22;4900;49.306;8.500;2022-08-25T17:42:13;34.42;33.02
9723;DHT22;4900;49.306;8.500;2022-08-25T17:45:15;34.25;33.58
9723;DHT22;4900;49.306;8.500;2022-08-25T17:48:19;34.08;34.38
9723;DHT22;4900;49.306;8.500;2022-08-25T17:51:22;33.92;34.77
9723;DHT22;4900;49.306;8.500;2022-08-25T17:54:26;33.74;35.41
9723;DHT22;4900;49.306;8.500;2022-08-25T17:57:29;33.54;36.25
9723;DHT22;4900;49.306;8.500;2022-08-25T18:00:35;33.34;36.96
9723;DHT22;4900;49.306;8.500;2022-08-25T18:03:39;33.11;37.82
9723;DHT22;4900;49.306;8.500;2022-08-25T18:06:42;32.89;37.88
9723;DHT22;4900;49.306;8.500;2022-08-25T18:09:45;32.61;38.95
9723;DHT22;4900;49.306;8.500;2022-08-25T18:12:49;32.43;39.04
9723;DHT22;4900;49.306;8.500;2022-08-25T18:15:52;32.22;39.54
9723;DHT22;4900;49.306;8.500;2022-08-25T18:18:55;31.96;40.37
9723;DHT22;4900;49.306;8.500;2022-08-25T18:21:58;31.72;40.89
9723;DHT22;4900;49.306;8.500;2022-08-25T18:25:12;31.48;41.37
9723;DHT22;4900;49.306;8.500;2022-08-25T18:28:15;31.29;41.68
9723;DHT22;4900;49.306;8.500;2022-08-25T18:31:19;31.07;42.14
9723;DHT22;4900;49.306;8.500;2022-08-25T18:34:22;30.88;42.60
9723;DHT22;4900;49.306;8.500;2022-08-25T18:37:26;30.65;43.49
9723;DHT22;4900;49.306;8.500;2022-08-25T18:40:53;30.44;44.28
9723;DHT22;4900;49.306;8.500;2022-08-25T18:43:57;30.24;44.67
9723;DHT22;4900;49.306;8.500;2022-08-25T18:47:00;30.10;45.18
9723;DHT22;4900;49.306;8.500;2022-08-25T18:50:04;29.92;46.07
9723;DHT22;4900;49.306;8.500;2022-08-25T18:53:08;29.78;46.48
9723;DHT22;4900;49.306;8.500;2022-08-25T18:56:11;29.61;46.78
9723;DHT22;4900;49.306;8.500;2022-08-25T18:59:15;29.47;46.77
9723;DHT22;4900;49.306;8.500;2022-08-25T19:02:18;29.33;46.76
9723;DHT22;4900;49.306;8.500;2022-08-25T19:05:33;29.22;47.08
9723;DHT22;4900;49.306;8.500;2022-08-25T19:08:36;29.09;47.00
9723;DHT22;4900;49.306;8.500;2022-08-25T19:11:42;28.95;47.26
9723;DHT22;4900;49.306;8.500;2022-08-25T19:14:45;28.81;47.65
9723;DHT22;4900;49.306;8.500;2022-08-25T19:17:48;28.64;47.82
9723;DHT22;4900;49.306;8.500;2022-08-25T19:20:51;28.54;47.96
9723;DHT22;4900;49.306;8.500;2022-08-25T19:23:54;28.45;48.15
9723;DHT22;4900;49.306;8.500;2022-08-25T19:26:57;28.31;48.37
9723;DHT22;4900;49.306;8.500;2022-08-25T19:30:07;28.26;48.29
9723;DHT22;4900;49.306;8.500;2022-08-25T19:33:11;28.13;48.09
9723;DHT22;4900;49.306;8.500;2022-08-25T19:36:15;28.05;48.36
9723;DHT22;4900;49.306;8.500;2022-08-25T19:39:19;27.95;48.55
9723;DHT22;4900;49.306;8.500;2022-08-25T19:42:24;27.90;48.48
9723;DHT22;4900;49.306;8.500;2022-08-25T19:45:29;27.81;48.55
9723;DHT22;4900;49.306;8.500;2022-08-25T19:48:33;27.69;48.90
9723;DHT22;4900;49.306;8.500;2022-08-25T19:51:41;27.61;49.02
9723;DHT22;4900;49.306;8.500;2022-08-25T19:54:45;27.51;49.22
9723;DHT22;4900;49.306;8.500;2022-08-25T19:57:48;27.46;49.41
9723;DHT22;4900;49.306;8.500;2022-08-25T20:00:52;27.35;49.66
9723;DHT22;4900;49.306;8.500;2022-08-25T20:03:55;27.24;49.79
9723;DHT22;4900;49.306;8.500;2022-08-25T20:06:58;27.17;50.60
9723;DHT22;4900;49.306;8.500;2022-08-25T20:10:03;27.09;50.46
9723;DHT22;4900;49.306;8.500;2022-08-25T20:13:08;27.02;50.88
9723;DHT22;4900;49.306;8.500;2022-08-25T20:16:11;26.95;51.65
9723;DHT22;4900;49.306;8.500;2022-08-25T20:19:14;26.89;52.19
9723;DHT22;4900;49.306;8.500;2022-08-25T20:22:16;26.86;52.80
9723;DHT22;4900;49.306;8.500;2022-08-25T20:25:23;26.82;53.12
9723;DHT22;4900;49.306;8.500;2022-08-25T20:28:26;26.78;53.25
9723;DHT22;4900;49.306;8.500;2022-08-25T20:31:30;26.68;53.64
9723;DHT22;4900;49.306;8.500;2022-08-25T20:34:33;26.61;54.01
9723;DHT22;4900;49.306;8.500;2022-08-25T20:37:36;26.55;54.11
9723;DHT22;4900;49.306;8.500;2022-08-25T20:40:41;26.47;54.24
9723;DHT22;4900;49.306;8.500;2022-08-25T20:43:44;26.40;54.47
9723;DHT22;4900;49.306;8.500;2022-08-25T20:46:48;26.37;54.53
9723;DHT22;4900;49.306;8.500;2022-08-25T20:49:51;26.26;54.66
9723;DHT22;4900;49.306;8.500;2022-08-25T20:52:55;26.22;55.16
9723;DHT22;4900;49.306;8.500;2022-08-25T20:56:00;26.12;55.36
9723;DHT22;4900;49.306;8.500;2022-08-25T20:59:03;26.07;55.48
9723;DHT22;4900;49.306;8.500;2022-08-25T21:02:06;26.02;55.45
9723;DHT22;4900;49.306;8.500;2022-08-25T21:05:09;26.02;55.58
9723;DHT22;4900;49.306;8.500;2022-08-25T21:08:12;25.95;55.55
9723;DHT22;4900;49.306;8.500;2022-08-25T21:11:16;25.89;55.63
9723;DHT22;4900;49.306;8.500;2022-08-25T21:14:20;25.86;55.45
9723;DHT22;4900;49.306;8.500;2022-08-25T21:17:24;25.77;55.48
9723;DHT22;4900;49.306;8.500;2022-08-25T21:20:27;25.69;55.87
9723;DHT22;4900;49.306;8.500;2022-08-25T21:23:31;25.62;55.85
9723;DHT22;4900;49.306;8.500;2022-08-25T21:26:34;25.57;55.81
9723;DHT22;4900;49.306;8.500;2022-08-25T21:29:37;25.55;55.78
9723;DHT22;4900;49.306;8.500;2022-08-25T21:32:40;25.53;55.91
9723;DHT22;4900;49.306;8.500;2022-08-25T21:35:43;25.47;55.87
9723;DHT22;4900;49.306;8.500;2022-08-25T21:38:46;25.48;55.55
9723;DHT22;4900;49.306;8.500;2022-08-25T21:41:50;25.47;55.38
9723;DHT22;4900;49.306;8.500;2022-08-25T21:44:53;25.48;55.34
9723;DHT22;4900;49.306;8.500;2022-08-25T21:47:57;25.47;55.24